sensor_id;sensor_type;location;lat;lon;timestamp;P1;durP1;ratioP1;P2;durP2;ratioP2
48861;SDS011;34681;49.188;-0.374;2023-11-22T00:01:22;4.83;;;2.57;;
48861;SDS011;34681;49.188;-0.374;2023-11-22T00:03:47;7.17;;;2.90;;
48861;SDS011;34681;49.188;-0.374;2023-11-22T00:06:13;7.20;;;3.23;;
48861;SDS011;34681;49.188;-0.374;2023-11-22T00:08:38;13.30;;;2.90;;
48861;SDS011;34681;49.188;-0.374;2023-11-22T00:11:03;5.23;;;2.40;;
48861;SDS011;34681;49.188;-0.374;2023-11-22T00:13:30;8.43;;;2.40;;
48861;SDS011;34681;49.188;-0.374;2023-11-22T00:15:57;10.93;;;3.33;;
48861;SDS011;34681;49.188;-0.374;2023-11-22T00:18:22;5.90;;;2.77;;
48861;SDS011;34681;49.188;-0.374;2023-11-22T00:20:47;8.47;;;2.80;;
48861;SDS011;34681;49.188;-0.374;2023-11-22T00:23:13;4.83;;;2.10;;
48861;SDS011;34681;49.188;-0.374;2023-11-22T00:25:39;7.83;;;3.10;;
48861;SDS011;34681;49.188;-0.374;2023-11-22T00:28:04;5.00;;;2.53;;
48861;SDS011;34681;49.188;-0.374;2023-11-22T00:30:31;5.80;;;2.07;;
48861;SDS011;34681;49.188;-0.374;2023-11-22T00:32:57;3.97;;;2.50;;
48861;SDS011;34681;49.188;-0.374;2023-11-22T00:35:22;10.70;;;2.73;;
48861;SDS011;34681;49.188;-0.374;2023-11-22T00:37:48;5.90;;;2.60;;
48861;SDS011;34681;49.188;-0.374;2023-11-22T00:40:13;9.83;;;2.13;;
48861;SDS011;34681;49.188;-0.374;2023-11-22T00:42:39;3.80;;;2.17;;
48861;SDS011;34681;49.188;-0.374;2023-11-22T00:45:07;3.10;;;2.40;;
48861;SDS011;34681;49.188;-0.374;2023-11-22T00:47:34;6.10;;;2.80;;
48861;SDS011;34681;49.188;-0.374;2023-11-22T00:50:00;5.13;;;2.27;;
48861;SDS011;34681;49.188;-0.374;2023-11-22T00:52:26;5.00;;;1.90;;
48861;SDS011;34681;49.188;-0.374;2023-11-22T00:54:52;4.60;;;2.73;;
48861;SDS011;34681;49.188;-0.374;2023-11-22T00:57:18;5.87;;;2.53;;
48861;SDS011;34681;49.188;-0.374;2023-11-22T00:59:43;4.97;;;2.60;;
48861;SDS011;34681;49.188;-0.374;2023-11-22T01:02:08;7.17;;;2.93;;
48861;SDS011;34681;49.188;-0.374;2023-11-22T01:04:34;6.13;;;2.50;;
48861;SDS011;34681;49.188;-0.374;2023-11-22T01:07:01;7.23;;;2.97;;
48861;SDS011;34681;49.188;-0.374;2023-11-22T01:09:29;4.20;;;2.40;;
48861;SDS011;34681;49.188;-0.374;2023-11-22T01:11:55;8.30;;;2.83;;
48861;SDS011;34681;49.188;-0.374;2023-11-22T01:14:21;5.07;;;2.37;;
48861;SDS011;34681;49.188;-0.374;2023-11-22T01:16:46;4.43;;;2.50;;
48861;SDS011;34681;49.188;-0.374;2023-11-22T01:19:12;9.53;;;2.43;;
48861;SDS011;34681;49.188;-0.374;2023-11-22T01:21:37;12.83;;;3.20;;
48861;SDS011;34681;49.188;-0.374;2023-11-22T01:24:03;5.37;;;2.60;;
48861;SDS011;34681;49.188;-0.374;2023-11-22T01:26:28;9.40;;;2.73;;
48861;SDS011;34681;49.188;-0.374;2023-11-22T01:28:55;7.97;;;2.63;;
48861;SDS011;34681;49.188;-0.374;2023-11-22T01:31:20;7.87;;;3.00;;
48861;SDS011;34681;49.188;-0.374;2023-11-22T01:33:47;3.90;;;2.40;;
48861;SDS011;34681;49.188;-0.374;2023-11-22T01:36:13;12.20;;;3.03;;
48861;SDS011;34681;49.188;-0.374;2023-11-22T01:38:38;8.90;;;2.90;;
48861;SDS011;34681;49.188;-0.374;2023-11-22T01:41:04;9.57;;;2.63;;
48861;SDS011;34681;49.188;-0.374;2023-11-22T01:43:30;7.90;;;3.07;;
48861;SDS011;34681;49.188;-0.374;2023-11-22T01:45:56;7.77;;;3.20;;
48861;SDS011;34681;49.188;-0.374;2023-11-22T01:48:22;7.07;;;2.50;;
48861;SDS011;34681;49.188;-0.374;2023-11-22T01:50:48;7.40;;;3.10;;
48861;SDS011;34681;49.188;-0.374;2023-11-22T01:53:13;5.20;;;3.00;;
48861;SDS011;34681;49.188;-0.374;2023-11-22T01:55:41;6.43;;;3.10;;
48861;SDS011;34681;49.188;-0.374;2023-11-22T01:58:08;3.57;;;2.23;;
48861;SDS011;34681;49.188;-0.374;2023-11-22T02:00:41;3.33;;;2.13;;
48861;SDS011;34681;49.188;-0.374;2023-11-22T02:03:14;6.40;;;2.67;;
48861;SDS011;34681;49.188;-0.374;2023-11-22T02:05:40;4.53;;;2.20;;
48861;SDS011;34681;49.188;-0.374;2023-11-22T02:08:08;3.93;;;2.20;;
48861;SDS011;34681;49.188;-0.374;2023-11-22T02:10:34;8.63;;;2.73;;
48861;SDS011;34681;49.188;-0.374;2023-11-22T02:13:01;4.50;;;3.50;;
48861;SDS011;34681;49.188;-0.374;2023-11-22T02:15:29;6.00;;;3.17;;
48861;SDS011;34681;49.188;-0.374;2023-11-22T02:17:55;4.47;;;2.80;;
48861;SDS011;34681;49.188;-0.374;2023-11-22T02:20:20;5.47;;;2.70;;
48861;SDS011;34681;49.188;-0.374;2023-11-22T02:22:46;8.20;;;3.47;;
48861;SDS011;34681;49.188;-0.374;2023-11-22T02:25:12;5.60;;;2.73;;
48861;SDS011;34681;49.188;-0.374;2023-11-22T02:27:38;6.10;;;2.47;;
48861;SDS011;34681;49.188;-0.374;2023-11-22T02:30:05;7.80;;;2.53;;
48861;SDS011;34681;49.188;-0.374;2023-11-22T02:32:31;5.73;;;2.67;;
48861;SDS011;34681;49.188;-0.374;2023-11-22T02:34:56;6.43;;;3.40;;
48861;SDS011;34681;49.188;-0.374;2023-11-22T02:37:21;8.97;;;3.07;;
48861;SDS011;34681;49.188;-0.374;2023-11-22T02:39:58;8.23;;;2.90;;
48861;SDS011;34681;49.188;-0.374;2023-11-22T02:42:49;8.50;;;3.00;;
48861;SDS011;34681;49.188;-0.374;2023-11-22T02:45:15;11.63;;;3.87;;
48861;SDS011;34681;49.188;-0.374;2023-11-22T02:47:42;10.20;;;3.87;;
48861;SDS011;34681;49.188;-0.374;2023-11-22T02:50:09;5.67;;;2.93;;
48861;SDS011;34681;49.188;-0.374;2023-11-22T02:52:35;9.53;;;3.30;;
48861;SDS011;34681;49.188;-0.374;2023-11-22T02:55:00;3.20;;;2.83;;
48861;SDS011;34681;49.188;-0.374;2023-11-22T02:57:25;4.23;;;2.60;;
48861;SDS011;34681;49.188;-0.374;2023-11-22T02:59:51;7.27;;;3.07;;
48861;SDS011;34681;49.188;-0.374;2023-11-22T03:02:17;3.30;;;2.30;;
48861;SDS011;34681;49.188;-0.374;2023-11-22T03:04:42;4.77;;;2.60;;
48861;SDS011;34681;49.188;-0.374;2023-11-22T03:07:08;8.97;;;3.63;;
48861;SDS011;34681;49.188;-0.374;2023-11-22T03:09:34;5.27;;;2.30;;
48861;SDS011;34681;49.188;-0.374;2023-11-22T03:12:00;7.30;;;2.43;;
48861;SDS011;34681;49.188;-0.374;2023-11-22T03:14:27;6.03;;;2.67;;
48861;SDS011;34681;49.188;-0.374;2023-11-22T03:16:53;2.67;;;2.10;;
48861;SDS011;34681;49.188;-0.374;2023-11-22T03:19:18;5.93;;;2.27;;
48861;SDS011;34681;49.188;-0.374;2023-11-22T03:21:44;3.00;;;2.20;;
48861;SDS011;34681;49.188;-0.374;2023-11-22T03:24:10;3.93;;;2.30;;
48861;SDS011;34681;49.188;-0.374;2023-11-22T03:26:36;6.20;;;2.20;;
48861;SDS011;34681;49.188;-0.374;2023-11-22T03:29:01;4.47;;;2.00;;
48861;SDS011;34681;49.188;-0.374;2023-11-22T03:31:27;4.20;;;2.37;;
48861;SDS011;34681;49.188;-0.374;2023-11-22T03:33:53;3.47;;;2.50;;
48861;SDS011;34681;49.188;-0.374;2023-11-22T03:36:19;4.50;;;1.80;;
48861;SDS011;34681;49.188;-0.374;2023-11-22T03:38:45;7.57;;;2.80;;
48861;SDS011;34681;49.188;-0.374;2023-11-22T03:41:11;5.70;;;2.57;;
48861;SDS011;34681;49.188;-0.374;2023-11-22T03:43:36;6.13;;;3.03;;
48861;SDS011;34681;49.188;-0.374;2023-11-22T03:46:01;3.80;;;2.50;;
48861;SDS011;34681;49.188;-0.374;2023-11-22T03:48:27;10.43;;;2.83;;
48861;SDS011;34681;49.188;-0.374;2023-11-22T03:50:53;7.60;;;2.43;;
48861;SDS011;34681;49.188;-0.374;2023-11-22T03:53:18;6.17;;;2.40;;
48861;SDS011;34681;49.188;-0.374;2023-11-22T03:55:46;6.30;;;2.80;;
48861;SDS011;34681;49.188;-0.374;2023-11-22T03:58:11;7.60;;;3.80;;
48861;SDS011;34681;49.188;-0.374;2023-11-22T04:00:37;5.13;;;2.50;;
48861;SDS011;34681;49.188;-0.374;2023-11-22T04:03:02;6.60;;;2.67;;
48861;SDS011;34681;49.188;-0.374;2023-11-22T04:05:28;6.90;;;2.67;;
48861;SDS011;34681;49.188;-0.374;2023-11-22T04:07:54;9.70;;;3.50;;
48861;SDS011;34681;49.188;-0.374;2023-11-22T04:10:19;7.33;;;2.37;;
48861;SDS011;34681;49.188;-0.374;2023-11-22T04:12:46;4.10;;;3.20;;
48861;SDS011;34681;49.188;-0.374;2023-11-22T04:15:12;9.97;;;2.87;;
48861;SDS011;34681;49.188;-0.374;2023-11-22T04:17:39;8.97;;;3.17;;
48861;SDS011;34681;49.188;-0.374;2023-11-22T04:20:08;9.40;;;3.40;;
48861;SDS011;34681;49.188;-0.374;2023-11-22T04:22:39;5.17;;;2.93;;
48861;SDS011;34681;49.188;-0.374;2023-11-22T04:25:05;6.07;;;2.90;;
48861;SDS011;34681;49.188;-0.374;2023-11-22T04:27:31;9.33;;;3.20;;
48861;SDS011;34681;49.188;-0.374;2023-11-22T04:29:58;4.93;;;2.80;;
48861;SDS011;34681;49.188;-0.374;2023-11-22T04:32:23;5.10;;;2.60;;
48861;SDS011;34681;49.188;-0.374;2023-11-22T04:34:48;6.93;;;2.60;;
48861;SDS011;34681;49.188;-0.374;2023-11-22T04:37:14;7.53;;;2.73;;
48861;SDS011;34681;49.188;-0.374;2023-11-22T04:39:39;4.30;;;1.93;;
48861;SDS011;34681;49.188;-0.374;2023-11-22T04:42:05;3.93;;;2.03;;
48861;SDS011;34681;49.188;-0.374;2023-11-22T04:44:30;8.63;;;2.60;;
48861;SDS011;34681;49.188;-0.374;2023-11-22T04:46:57;9.27;;;2.60;;
48861;SDS011;34681;49.188;-0.374;2023-11-22T04:49:24;5.00;;;3.00;;
48861;SDS011;34681;49.188;-0.374;2023-11-22T04:51:49;7.33;;;2.50;;
48861;SDS011;34681;49.188;-0.374;2023-11-22T04:54:15;7.50;;;2.30;;
48861;SDS011;34681;49.188;-0.374;2023-11-22T04:56:40;6.37;;;2.30;;
48861;SDS011;34681;49.188;-0.374;2023-11-22T04:59:06;4.93;;;2.10;;
48861;SDS011;34681;49.188;-0.374;2023-11-22T05:01:31;8.37;;;2.37;;
48861;SDS011;34681;49.188;-0.374;2023-11-22T05:03:57;5.20;;;2.30;;
48861;SDS011;34681;49.188;-0.374;2023-11-22T05:06:24;6.03;;;2.20;;
48861;SDS011;34681;49.188;-0.374;2023-11-22T05:08:49;5.63;;;2.70;;
48861;SDS011;34681;49.188;-0.374;2023-11-22T05:11:15;6.63;;;2.30;;
48861;SDS011;34681;49.188;-0.374;2023-11-22T05:13:41;8.50;;;2.50;;
48861;SDS011;34681;49.188;-0.374;2023-11-22T05:16:08;4.87;;;2.17;;
48861;SDS011;34681;49.188;-0.374;2023-11-22T05:18:34;5.43;;;2.30;;
48861;SDS011;34681;49.188;-0.374;2023-11-22T05:21:00;5.80;;;2.60;;
48861;SDS011;34681;49.188;-0.374;2023-11-22T05:23:26;4.20;;;2.67;;
48861;SDS011;34681;49.188;-0.374;2023-11-22T05:25:51;8.80;;;3.13;;
48861;SDS011;34681;49.188;-0.374;2023-11-22T05:28:17;6.10;;;2.33;;
48861;SDS011;34681;49.188;-0.374;2023-11-22T05:30:42;6.77;;;2.53;;
48861;SDS011;34681;49.188;-0.374;2023-11-22T05:33:08;6.73;;;3.40;;
48861;SDS011;34681;49.188;-0.374;2023-11-22T05:35:33;5.93;;;1.73;;
48861;SDS011;34681;49.188;-0.374;2023-11-22T05:37:59;4.43;;;2.53;;
48861;SDS011;34681;49.188;-0.374;2023-11-22T05:40:24;5.00;;;2.53;;
48861;SDS011;34681;49.188;-0.374;2023-11-22T05:42:50;7.13;;;2.23;;
48861;SDS011;34681;49.188;-0.374;2023-11-22T05:45:15;5.80;;;2.97;;
48861;SDS011;34681;49.188;-0.374;2023-11-22T05:47:41;3.07;;;2.27;;
48861;SDS011;34681;49.188;-0.374;2023-11-22T05:50:08;4.40;;;2.53;;
48861;SDS011;34681;49.188;-0.374;2023-11-22T05:52:33;8.57;;;3.37;;
48861;SDS011;34681;49.188;-0.374;2023-11-22T05:54:59;9.33;;;3.50;;
48861;SDS011;34681;49.188;-0.374;2023-11-22T05:57:28;10.30;;;2.63;;
48861;SDS011;34681;49.188;-0.374;2023-11-22T05:59:53;7.50;;;2.83;;
48861;SDS011;34681;49.188;-0.374;2023-11-22T06:02:19;5.00;;;2.70;;
48861;SDS011;34681;49.188;-0.374;2023-11-22T06:04:44;6.43;;;2.90;;
48861;SDS011;34681;49.188;-0.374;2023-11-22T06:07:09;4.20;;;2.57;;
48861;SDS011;34681;49.188;-0.374;2023-11-22T06:09:35;3.10;;;2.40;;
48861;SDS011;34681;49.188;-0.374;2023-11-22T06:12:01;5.00;;;3.47;;
48861;SDS011;34681;49.188;-0.374;2023-11-22T06:14:26;5.67;;;2.40;;
48861;SDS011;34681;49.188;-0.374;2023-11-22T06:16:51;4.40;;;3.00;;
48861;SDS011;34681;49.188;-0.374;2023-11-22T06:19:17;5.80;;;2.20;;
48861;SDS011;34681;49.188;-0.374;2023-11-22T06:21:42;5.47;;;2.17;;
48861;SDS011;34681;49.188;-0.374;2023-11-22T06:24:08;4.80;;;2.60;;
48861;SDS011;34681;49.188;-0.374;2023-11-22T06:26:36;4.57;;;2.30;;
48861;SDS011;34681;49.188;-0.374;2023-11-22T06:29:04;3.23;;;2.10;;
48861;SDS011;34681;49.188;-0.374;2023-11-22T06:31:30;2.83;;;2.13;;
48861;SDS011;34681;49.188;-0.374;2023-11-22T06:33:55;2.40;;;1.80;;
48861;SDS011;34681;49.188;-0.374;2023-11-22T06:36:20;3.73;;;1.87;;
48861;SDS011;34681;49.188;-0.374;2023-11-22T06:38:46;5.47;;;3.23;;
48861;SDS011;34681;49.188;-0.374;2023-11-22T06:41:11;2.80;;;1.80;;
48861;SDS011;34681;49.188;-0.374;2023-11-22T06:43:37;8.10;;;2.37;;
48861;SDS011;34681;49.188;-0.374;2023-11-22T06:46:02;2.83;;;2.20;;
48861;SDS011;34681;49.188;-0.374;2023-11-22T06:48:31;6.20;;;1.90;;
48861;SDS011;34681;49.188;-0.374;2023-11-22T06:50:57;6.73;;;3.27;;
48861;SDS011;34681;49.188;-0.374;2023-11-22T06:53:22;3.10;;;2.20;;
48861;SDS011;34681;49.188;-0.374;2023-11-22T06:55:47;2.93;;;2.43;;
48861;SDS011;34681;49.188;-0.374;2023-11-22T06:58:13;2.10;;;1.83;;
48861;SDS011;34681;49.188;-0.374;2023-11-22T07:00:38;2.50;;;2.00;;
48861;SDS011;34681;49.188;-0.374;2023-11-22T07:03:05;4.57;;;2.23;;
48861;SDS011;34681;49.188;-0.374;2023-11-22T07:05:30;4.23;;;2.20;;
48861;SDS011;34681;49.188;-0.374;2023-11-22T07:07:56;3.30;;;2.77;;
48861;SDS011;34681;49.188;-0.374;2023-11-22T07:10:21;4.70;;;2.80;;
48861;SDS011;34681;49.188;-0.374;2023-11-22T07:12:47;4.90;;;2.17;;
48861;SDS011;34681;49.188;-0.374;2023-11-22T07:15:12;6.10;;;2.50;;
48861;SDS011;34681;49.188;-0.374;2023-11-22T07:17:39;9.07;;;2.90;;
48861;SDS011;34681;49.188;-0.374;2023-11-22T07:20:05;5.20;;;2.43;;
48861;SDS011;34681;49.188;-0.374;2023-11-22T07:22:34;11.00;;;2.87;;
48861;SDS011;34681;49.188;-0.374;2023-11-22T07:25:00;2.57;;;2.20;;
48861;SDS011;34681;49.188;-0.374;2023-11-22T07:27:27;5.87;;;2.67;;
48861;SDS011;34681;49.188;-0.374;2023-11-22T07:29:53;2.70;;;2.50;;
48861;SDS011;34681;49.188;-0.374;2023-11-22T07:32:19;4.73;;;2.70;;
48861;SDS011;34681;49.188;-0.374;2023-11-22T07:34:47;4.97;;;2.70;;
48861;SDS011;34681;49.188;-0.374;2023-11-22T07:37:13;4.90;;;2.87;;
48861;SDS011;34681;49.188;-0.374;2023-11-22T07:39:40;3.83;;;2.23;;
48861;SDS011;34681;49.188;-0.374;2023-11-22T07:42:07;5.13;;;2.43;;
48861;SDS011;34681;49.188;-0.374;2023-11-22T07:44:33;6.43;;;2.17;;
48861;SDS011;34681;49.188;-0.374;2023-11-22T07:47:00;3.83;;;2.30;;
48861;SDS011;34681;49.188;-0.374;2023-11-22T07:49:27;4.60;;;2.20;;
48861;SDS011;34681;49.188;-0.374;2023-11-22T07:51:54;2.60;;;2.40;;
48861;SDS011;34681;49.188;-0.374;2023-11-22T07:54:19;5.73;;;2.30;;
48861;SDS011;34681;49.188;-0.374;2023-11-22T07:56:47;2.80;;;2.20;;
48861;SDS011;34681;49.188;-0.374;2023-11-22T07:59:13;4.27;;;2.20;;
48861;SDS011;34681;49.188;-0.374;2023-11-22T08:01:38;9.63;;;3.50;;
48861;SDS011;34681;49.188;-0.374;2023-11-22T08:04:08;10.60;;;4.47;;
48861;SDS011;34681;49.188;-0.374;2023-11-22T08:06:34;7.60;;;3.30;;
48861;SDS011;34681;49.188;-0.374;2023-11-22T08:09:00;8.43;;;3.10;;
48861;SDS011;34681;49.188;-0.374;2023-11-22T08:11:29;4.60;;;3.10;;
48861;SDS011;34681;49.188;-0.374;2023-11-22T08:13:54;5.23;;;2.97;;
48861;SDS011;34681;49.188;-0.374;2023-11-22T08:16:22;3.60;;;3.30;;
48861;SDS011;34681;49.188;-0.374;2023-11-22T08:18:48;4.83;;;2.83;;
48861;SDS011;34681;49.188;-0.374;2023-11-22T08:21:13;4.23;;;3.63;;
48861;SDS011;34681;49.188;-0.374;2023-11-22T08:23:39;3.53;;;3.10;;
48861;SDS011;34681;49.188;-0.374;2023-11-22T08:26:04;4.07;;;2.80;;
48861;SDS011;34681;49.188;-0.374;2023-11-22T08:28:31;2.53;;;2.33;;
48861;SDS011;34681;49.188;-0.374;2023-11-22T08:30:56;5.13;;;3.13;;
48861;SDS011;34681;49.188;-0.374;2023-11-22T08:33:22;3.03;;;2.80;;
48861;SDS011;34681;49.188;-0.374;2023-11-22T08:35:47;3.70;;;3.23;;
48861;SDS011;34681;49.188;-0.374;2023-11-22T08:38:17;6.30;;;3.20;;
48861;SDS011;34681;49.188;-0.374;2023-11-22T08:40:44;5.63;;;3.93;;
48861;SDS011;34681;49.188;-0.374;2023-11-22T08:43:09;5.27;;;3.67;;
48861;SDS011;34681;49.188;-0.374;2023-11-22T08:45:35;4.83;;;3.67;;
48861;SDS011;34681;49.188;-0.374;2023-11-22T08:48:00;4.30;;;3.10;;
48861;SDS011;34681;49.188;-0.374;2023-11-22T08:50:25;4.70;;;3.60;;
48861;SDS011;34681;49.188;-0.374;2023-11-22T08:52:51;2.87;;;2.67;;
48861;SDS011;34681;49.188;-0.374;2023-11-22T08:55:19;3.80;;;2.43;;
48861;SDS011;34681;49.188;-0.374;2023-11-22T08:57:49;3.93;;;3.10;;
48861;SDS011;34681;49.188;-0.374;2023-11-22T09:00:16;5.03;;;2.67;;
48861;SDS011;34681;49.188;-0.374;2023-11-22T09:02:47;3.63;;;2.77;;
48861;SDS011;34681;49.188;-0.374;2023-11-22T09:05:13;3.30;;;2.73;;
48861;SDS011;34681;49.188;-0.374;2023-11-22T09:07:39;3.00;;;2.80;;
48861;SDS011;34681;49.188;-0.374;2023-11-22T09:10:04;3.80;;;2.80;;
48861;SDS011;34681;49.188;-0.374;2023-11-22T09:12:37;3.00;;;2.80;;
48861;SDS011;34681;49.188;-0.374;2023-11-22T09:15:06;2.67;;;2.50;;
48861;SDS011;34681;49.188;-0.374;2023-11-22T09:17:38;2.00;;;1.90;;
48861;SDS011;34681;49.188;-0.374;2023-11-22T09:20:17;3.83;;;2.20;;
48861;SDS011;34681;49.188;-0.374;2023-11-22T09:22:50;3.20;;;2.20;;
48861;SDS011;34681;49.188;-0.374;2023-11-22T09:25:19;1.80;;;1.70;;
48861;SDS011;34681;49.188;-0.374;2023-11-22T09:27:48;2.10;;;2.00;;
48861;SDS011;34681;49.188;-0.374;2023-11-22T09:30:16;3.10;;;2.10;;
48861;SDS011;34681;49.188;-0.374;2023-11-22T09:33:01;2.53;;;2.33;;
48861;SDS011;34681;49.188;-0.374;2023-11-22T09:35:28;3.80;;;2.27;;
48861;SDS011;34681;49.188;-0.374;2023-11-22T09:38:00;3.77;;;3.43;;
48861;SDS011;34681;49.188;-0.374;2023-11-22T09:40:27;2.20;;;1.40;;
48861;SDS011;34681;49.188;-0.374;2023-11-22T09:42:53;2.27;;;2.07;;
48861;SDS011;34681;49.188;-0.374;2023-11-22T09:45:20;1.93;;;1.83;;
48861;SDS011;34681;49.188;-0.374;2023-11-22T09:47:46;2.20;;;2.00;;
48861;SDS011;34681;49.188;-0.374;2023-11-22T09:50:35;1.53;;;1.43;;
48861;SDS011;34681;49.188;-0.374;2023-11-22T09:53:07;1.90;;;1.80;;
48861;SDS011;34681;49.188;-0.374;2023-11-22T09:55:37;1.80;;;1.63;;
48861;SDS011;34681;49.188;-0.374;2023-11-22T09:58:07;2.30;;;2.20;;
48861;SDS011;34681;49.188;-0.374;2023-11-22T10:00:36;3.67;;;2.57;;
48861;SDS011;34681;49.188;-0.374;2023-11-22T10:03:03;3.33;;;2.40;;
48861;SDS011;34681;49.188;-0.374;2023-11-22T10:05:29;3.40;;;1.80;;
48861;SDS011;34681;49.188;-0.374;2023-11-22T10:07:54;1.80;;;1.70;;
48861;SDS011;34681;49.188;-0.374;2023-11-22T10:10:20;2.47;;;2.07;;
48861;SDS011;34681;49.188;-0.374;2023-11-22T10:12:47;2.47;;;2.00;;
48861;SDS011;34681;49.188;-0.374;2023-11-22T10:15:13;1.87;;;1.77;;
48861;SDS011;34681;49.188;-0.374;2023-11-22T10:17:41;1.80;;;1.70;;
48861;SDS011;34681;49.188;-0.374;2023-11-22T10:20:12;1.60;;;1.50;;
48861;SDS011;34681;49.188;-0.374;2023-11-22T10:22:44;3.00;;;1.40;;
48861;SDS011;34681;49.188;-0.374;2023-11-22T10:25:12;2.10;;;2.00;;
48861;SDS011;34681;49.188;-0.374;2023-11-22T10:27:38;1.73;;;1.63;;
48861;SDS011;34681;49.188;-0.374;2023-11-22T10:30:05;1.53;;;1.43;;
48861;SDS011;34681;49.188;-0.374;2023-11-22T10:32:32;1.80;;;1.70;;
48861;SDS011;34681;49.188;-0.374;2023-11-22T10:34:58;2.70;;;1.90;;
48861;SDS011;34681;49.188;-0.374;2023-11-22T10:37:24;1.47;;;1.37;;
48861;SDS011;34681;49.188;-0.374;2023-11-22T10:39:50;1.87;;;1.50;;
48861;SDS011;34681;49.188;-0.374;2023-11-22T10:42:16;1.80;;;1.70;;
48861;SDS011;34681;49.188;-0.374;2023-11-22T10:44:42;1.57;;;1.47;;
48861;SDS011;34681;49.188;-0.374;2023-11-22T10:47:08;1.57;;;1.47;;
48861;SDS011;34681;49.188;-0.374;2023-11-22T10:49:34;2.30;;;2.10;;
48861;SDS011;34681;49.188;-0.374;2023-11-22T10:52:00;1.80;;;1.70;;
48861;SDS011;34681;49.188;-0.374;2023-11-22T10:54:27;1.73;;;1.50;;
48861;SDS011;34681;49.188;-0.374;2023-11-22T10:56:55;1.87;;;1.77;;
48861;SDS011;34681;49.188;-0.374;2023-11-22T10:59:22;1.60;;;1.50;;
48861;SDS011;34681;49.188;-0.374;2023-11-22T11:01:50;1.70;;;1.60;;
48861;SDS011;34681;49.188;-0.374;2023-11-22T11:04:24;1.77;;;1.40;;
48861;SDS011;34681;49.188;-0.374;2023-11-22T11:06:54;3.40;;;1.57;;
48861;SDS011;34681;49.188;-0.374;2023-11-22T11:09:23;1.47;;;1.17;;
48861;SDS011;34681;49.188;-0.374;2023-11-22T11:11:54;4.57;;;1.63;;
48861;SDS011;34681;49.188;-0.374;2023-11-22T11:14:22;1.70;;;1.60;;
48861;SDS011;34681;49.188;-0.374;2023-11-22T11:16:48;2.20;;;1.50;;
48861;SDS011;34681;49.188;-0.374;2023-11-22T11:19:19;1.70;;;1.60;;
48861;SDS011;34681;49.188;-0.374;2023-11-22T11:21:47;3.83;;;1.70;;
48861;SDS011;34681;49.188;-0.374;2023-11-22T11:24:13;1.80;;;1.70;;
48861;SDS011;34681;49.188;-0.374;2023-11-22T11:26:39;1.70;;;1.60;;
48861;SDS011;34681;49.188;-0.374;2023-11-22T11:29:04;1.90;;;1.80;;
48861;SDS011;34681;49.188;-0.374;2023-11-22T11:31:31;1.73;;;1.63;;
48861;SDS011;34681;49.188;-0.374;2023-11-22T11:34:01;2.13;;;1.70;;
48861;SDS011;34681;49.188;-0.374;2023-11-22T11:36:32;2.00;;;1.50;;
48861;SDS011;34681;49.188;-0.374;2023-11-22T11:38:58;3.30;;;1.63;;
48861;SDS011;34681;49.188;-0.374;2023-11-22T11:41:30;1.37;;;1.30;;
48861;SDS011;34681;49.188;-0.374;2023-11-22T11:44:02;2.50;;;2.03;;
48861;SDS011;34681;49.188;-0.374;2023-11-22T11:46:29;1.70;;;1.60;;
48861;SDS011;34681;49.188;-0.374;2023-11-22T11:48:55;1.70;;;1.60;;
48861;SDS011;34681;49.188;-0.374;2023-11-22T11:51:21;1.63;;;1.53;;
48861;SDS011;34681;49.188;-0.374;2023-11-22T11:53:48;3.23;;;1.83;;
48861;SDS011;34681;49.188;-0.374;2023-11-22T11:56:14;1.80;;;1.57;;
48861;SDS011;34681;49.188;-0.374;2023-11-22T11:58:41;1.60;;;1.50;;
48861;SDS011;34681;49.188;-0.374;2023-11-22T12:01:07;2.33;;;2.03;;
48861;SDS011;34681;49.188;-0.374;2023-11-22T12:03:33;1.43;;;1.33;;
48861;SDS011;34681;49.188;-0.374;2023-11-22T12:06:01;2.00;;;1.63;;
48861;SDS011;34681;49.188;-0.374;2023-11-22T12:08:27;1.53;;;1.43;;
48861;SDS011;34681;49.188;-0.374;2023-11-22T12:10:55;1.83;;;1.70;;
48861;SDS011;34681;49.188;-0.374;2023-11-22T12:13:23;1.50;;;1.40;;
48861;SDS011;34681;49.188;-0.374;2023-11-22T12:15:52;1.83;;;1.30;;
48861;SDS011;34681;49.188;-0.374;2023-11-22T12:18:21;1.93;;;1.57;;
48861;SDS011;34681;49.188;-0.374;2023-11-22T12:20:54;1.20;;;1.20;;
48861;SDS011;34681;49.188;-0.374;2023-11-22T12:23:21;1.63;;;1.53;;
48861;SDS011;34681;49.188;-0.374;2023-11-22T12:25:46;1.83;;;1.30;;
48861;SDS011;34681;49.188;-0.374;2023-11-22T12:28:12;2.20;;;1.40;;
48861;SDS011;34681;49.188;-0.374;2023-11-22T12:30:39;1.60;;;1.50;;
48861;SDS011;34681;49.188;-0.374;2023-11-22T12:33:06;1.50;;;1.40;;
48861;SDS011;34681;49.188;-0.374;2023-11-22T12:35:34;1.70;;;1.60;;
48861;SDS011;34681;49.188;-0.374;2023-11-22T12:38:04;1.60;;;1.50;;
48861;SDS011;34681;49.188;-0.374;2023-11-22T12:40:34;1.70;;;1.60;;
48861;SDS011;34681;49.188;-0.374;2023-11-22T12:43:00;2.70;;;2.10;;
48861;SDS011;34681;49.188;-0.374;2023-11-22T12:45:26;1.90;;;1.63;;
48861;SDS011;34681;49.188;-0.374;2023-11-22T12:47:54;1.83;;;1.73;;
48861;SDS011;34681;49.188;-0.374;2023-11-22T12:50:30;4.20;;;2.00;;
48861;SDS011;34681;49.188;-0.374;2023-11-22T12:53:12;1.90;;;1.67;;
48861;SDS011;34681;49.188;-0.374;2023-11-22T12:55:41;3.20;;;1.70;;
48861;SDS011;34681;49.188;-0.374;2023-11-22T12:58:11;1.70;;;1.60;;
48861;SDS011;34681;49.188;-0.374;2023-11-22T13:00:38;1.50;;;1.40;;
48861;SDS011;34681;49.188;-0.374;2023-11-22T13:03:04;2.50;;;2.30;;
48861;SDS011;34681;49.188;-0.374;2023-11-22T13:05:31;2.33;;;2.23;;
48861;SDS011;34681;49.188;-0.374;2023-11-22T13:07:56;3.13;;;1.57;;
48861;SDS011;34681;49.188;-0.374;2023-11-22T13:10:22;3.70;;;2.20;;
48861;SDS011;34681;49.188;-0.374;2023-11-22T13:12:51;1.87;;;1.77;;
48861;SDS011;34681;49.188;-0.374;2023-11-22T13:15:17;2.20;;;1.70;;
48861;SDS011;34681;49.188;-0.374;2023-11-22T13:17:43;2.50;;;2.00;;
48861;SDS011;34681;49.188;-0.374;2023-11-22T13:20:08;2.33;;;2.23;;
48861;SDS011;34681;49.188;-0.374;2023-11-22T13:22:39;3.17;;;2.20;;
48861;SDS011;34681;49.188;-0.374;2023-11-22T13:25:10;4.90;;;1.83;;
48861;SDS011;34681;49.188;-0.374;2023-11-22T13:27:38;2.77;;;2.07;;
48861;SDS011;34681;49.188;-0.374;2023-11-22T13:30:05;5.03;;;2.60;;
48861;SDS011;34681;49.188;-0.374;2023-11-22T13:32:31;3.83;;;2.00;;
48861;SDS011;34681;49.188;-0.374;2023-11-22T13:34:57;2.20;;;2.03;;
48861;SDS011;34681;49.188;-0.374;2023-11-22T13:37:23;1.83;;;1.73;;
48861;SDS011;34681;49.188;-0.374;2023-11-22T13:39:49;3.97;;;2.20;;
48861;SDS011;34681;49.188;-0.374;2023-11-22T13:42:15;2.77;;;1.90;;
48861;SDS011;34681;49.188;-0.374;2023-11-22T13:44:40;2.30;;;2.00;;
48861;SDS011;34681;49.188;-0.374;2023-11-22T13:47:06;3.00;;;2.23;;
48861;SDS011;34681;49.188;-0.374;2023-11-22T13:49:33;2.20;;;2.00;;
48861;SDS011;34681;49.188;-0.374;2023-11-22T13:51:58;2.80;;;2.20;;
48861;SDS011;34681;49.188;-0.374;2023-11-22T13:54:24;2.80;;;2.30;;
48861;SDS011;34681;49.188;-0.374;2023-11-22T13:56:49;2.60;;;2.23;;
48861;SDS011;34681;49.188;-0.374;2023-11-22T13:59:14;2.50;;;2.23;;
48861;SDS011;34681;49.188;-0.374;2023-11-22T14:01:40;2.23;;;2.03;;
48861;SDS011;34681;49.188;-0.374;2023-11-22T14:04:05;4.53;;;1.97;;
48861;SDS011;34681;49.188;-0.374;2023-11-22T14:06:31;2.30;;;2.20;;
48861;SDS011;34681;49.188;-0.374;2023-11-22T14:08:56;2.53;;;2.33;;
48861;SDS011;34681;49.188;-0.374;2023-11-22T14:11:22;1.63;;;1.53;;
48861;SDS011;34681;49.188;-0.374;2023-11-22T14:13:47;3.37;;;1.60;;
48861;SDS011;34681;49.188;-0.374;2023-11-22T14:16:12;2.60;;;1.60;;
48861;SDS011;34681;49.188;-0.374;2023-11-22T14:18:39;1.90;;;1.80;;
48861;SDS011;34681;49.188;-0.374;2023-11-22T14:21:05;2.00;;;1.23;;
48861;SDS011;34681;49.188;-0.374;2023-11-22T14:23:31;4.80;;;2.13;;
48861;SDS011;34681;49.188;-0.374;2023-11-22T14:25:57;2.00;;;1.60;;
48861;SDS011;34681;49.188;-0.374;2023-11-22T14:28:22;1.43;;;1.33;;
48861;SDS011;34681;49.188;-0.374;2023-11-22T14:30:48;1.70;;;1.60;;